Time;durP1;ratioP1;P1;durP2;ratioP2;P2;SDS_P1;SDS_P2;PMS_P1;PMS_P2;Temp;Humidity;BMP_temperature;BMP_pressure;BME280_temperature;BME280_humidity;BME280_pressure;Samples;Min_cycle;Max_cycle;Signal;HPM_P1;HPM_P2
2021/01/16 00:03:29;;;;;;;27.8;17.2;;;;;;;-5.77;83.36719;98980.8;;;;
2021/01/16 00:13:26;;;;;;;33.7;21.1;;;;;;;-6.04;82.42578;98994.79;;;;
2021/01/16 00:23:23;;;;;;;33.1;18.8;;;;;;;-6.42;82.18945;99005.56;;;;
2021/01/16 00:33:20;;;;;;;27;17.8;;;;;;;-6.53;81.77637;99005.28;;;;
2021/01/16 00:43:17;;;;;;;30.9;16.9;;;;;;;-6.55;81.26563;98984.48;;;;
2021/01/16 00:53:14;;;;;;;18.2;11.3;;;;;;;-6.43;80.43262;99005.77;;;;
2021/01/16 01:03:14;;;;;;;15.2;10;;;;;;;-6.29;80.13477;99000.45;;;;
2021/01/16 01:13:10;;;;;;;15.2;9.1;;;;;;;-6.1;78.01465;99009.45;;;;
2021/01/16 01:23:05;;;;;;;20.1;13.2;;;;;;;-6.23;76.8623;98999.69;;;;
2021/01/16 01:33:02;;;;;;;17.3;10.2;;;;;;;-6.24;76.69629;99002.48;;;;
2021/01/16 01:42:59;;;;;;;11.1;7.4;;;;;;;-6.21;76.55273;99005.54;;;;
2021/01/16 01:52:56;;;;;;;18.1;9.5;;;;;;;-6.02;76.41211;99011.13;;;;
2021/01/16 02:02:53;;;;;;;17.6;8;;;;;;;-6.02;76.35742;99011.13;;;;
2021/01/16 02:12:52;;;;;;;14.8;10.8;;;;;;;-6.12;76.56738;99001.8;;;;
2021/01/16 02:22:47;;;;;;;12.2;8.6;;;;;;;-6.07;77.22656;99005.66;;;;
2021/01/16 02:32:44;;;;;;;17.6;8.4;;;;;;;-6.07;77.57422;99005.66;;;;
2021/01/16 02:42:42;;;;;;;16;8.4;;;;;;;-6.14;77.33496;99006.41;;;;
2021/01/16 02:52:39;;;;;;;15.7;8.9;;;;;;;-6.15;76.68262;99001.37;;;;
2021/01/16 03:02:36;;;;;;;9.3;6.8;;;;;;;-6.16;76.70215;98992.69;;;;
2021/01/16 03:12:33;;;;;;;18.2;10.3;;;;;;;-6.27;76.36816;98974.84;;;;
2021/01/16 03:22:30;;;;;;;18.6;10.8;;;;;;;-6.24;75.27734;98971.83;;;;
2021/01/16 03:32:27;;;;;;;11.8;7;;;;;;;-6.23;75.30078;98970.84;;;;
2021/01/16 03:42:24;;;;;;;12.4;7.3;;;;;;;-6.21;75.4668;98983.75;;;;
2021/01/16 03:52:21;;;;;;;14;9.1;;;;;;;-6.16;76.18164;98966.45;;;;
2021/01/16 04:02:18;;;;;;;16.6;8.3;;;;;;;-6.13;77.01074;98970.5;;;;
2021/01/16 04:12:15;;;;;;;16.5;8.3;;;;;;;-6.26;77.2793;98959.92;;;;
2021/01/16 04:22:12;;;;;;;15.1;10.1;;;;;;;-6.45;78.13281;98950.89;;;;
2021/01/16 04:32:09;;;;;;;12.6;7.2;;;;;;;-6.43;77.95215;98953.34;;;;
2021/01/16 04:42:06;;;;;;;12.9;6.5;;;;;;;-6.46;78.19629;98949.3;;;;
2021/01/16 04:52:03;;;;;;;16.6;9.2;;;;;;;-6.47;80.28516;98963.39;;;;
2021/01/16 05:02:00;;;;;;;11.2;7.2;;;;;;;-6.48;81.03027;98959.14;;;;
2021/01/16 05:11:57;;;;;;;11.5;6.5;;;;;;;-6.46;81.9541;98954.53;;;;
2021/01/16 05:21:54;;;;;;;13.9;6.8;;;;;;;-6.45;82.09668;98966.63;;;;
2021/01/16 05:31:51;;;;;;;17.6;10.6;;;;;;;-6.56;83.25293;98958.48;;;;
2021/01/16 05:41:48;;;;;;;11.9;8.2;;;;;;;-6.39;82.63867;98962.45;;;;
2021/01/16 05:51:45;;;;;;;13.5;7.1;;;;;;;-6.24;82.8418;98963.96;;;;
2021/01/16 06:01:43;;;;;;;14.2;6.9;;;;;;;-6.02;82.66699;98971.78;;;;
2021/01/16 06:11:45;;;;;;;18.1;10.7;;;;;;;-6.09;83.40039;98949.94;;;;
2021/01/16 06:21:37;;;;;;;19.4;11.8;;;;;;;-5.95;83.4707;98956.89;;;;
2021/01/16 06:31:34;;;;;;;16.8;10.7;;;;;;;-5.86;83.25195;98963.59;;;;
2021/01/16 06:41:31;;;;;;;16;12;;;;;;;-5.85;84.17383;98952.08;;;;
2021/01/16 06:51:28;;;;;;;30.7;16.6;;;;;;;-5.86;84.58398;98934.73;;;;
2021/01/16 07:01:25;;;;;;;21.9;13.7;;;;;;;-5.71;84.63574;98951.14;;;;
2021/01/16 07:11:22;;;;;;;32.3;18.6;;;;;;;-5.56;84.76172;98958.89;;;;
2021/01/16 07:21:19;;;;;;;28.2;20.1;;;;;;;-5.37;84.88867;98937.14;;;;
2021/01/16 07:31:16;;;;;;;26.5;15.5;;;;;;;-5.2;84.6084;98930.52;;;;
2021/01/16 07:41:13;;;;;;;29.6;18.8;;;;;;;-4.99;84.16113;98925.11;;;;
2021/01/16 07:51:11;;;;;;;26.2;16.9;;;;;;;-4.89;83.69336;98920.28;;;;
2021/01/16 08:01:08;;;;;;;22.5;16.4;;;;;;;-4.63;83.39746;98927.39;;;;
2021/01/16 08:11:05;;;;;;;27.4;18.1;;;;;;;-4.59;83.07813;98931.23;;;;
2021/01/16 08:21:02;;;;;;;27;18.8;;;;;;;-4.32;82.58887;98917.06;;;;
2021/01/16 08:30:59;;;;;;;28;19.3;;;;;;;-4.16;82.44531;98913.18;;;;
2021/01/16 08:41:03;;;;;;;30;20.7;;;;;;;-3.94;80.9209;98919.02;;;;
2021/01/16 08:50:54;;;;;;;24;19;;;;;;;-3.69;80.72852;98927.87;;;;
2021/01/16 09:00:51;;;;;;;24.8;18.5;;;;;;;-3.5;79.58789;98921.7;;;;
2021/01/16 09:10:48;;;;;;;29.3;20.6;;;;;;;-3.2;79.05469;98925.44;;;;
2021/01/16 09:20:46;;;;;;;36.6;23.1;;;;;;;-3.03;77.81738;98924.93;;;;
2021/01/16 09:30:43;;;;;;;28.6;19.8;;;;;;;-2.94;77.28906;98921.83;;;;
2021/01/16 09:40:41;;;;;;;27.5;18.2;;;;;;;-3.08;77.35156;98915.83;;;;
2021/01/16 09:50:42;;;;;;;24.9;17.3;;;;;;;-3.26;77.92969;98917.53;;;;
2021/01/16 10:00:36;;;;;;;26.4;18.7;;;;;;;-3.18;78.59961;98899.66;;;;
2021/01/16 10:10:32;;;;;;;23.2;17.1;;;;;;;-3.47;80.16016;98913.38;;;;
2021/01/16 10:20:30;;;;;;;26.3;17.1;;;;;;;-3.12;78.87109;98903.27;;;;
2021/01/16 10:30:29;;;;;;;25.5;16.9;;;;;;;-2.72;76.83789;98878.27;;;;
2021/01/16 10:40:25;;;;;;;32.5;16.5;;;;;;;-2.66;76.68457;98864.2;;;;
2021/01/16 10:50:22;;;;;;;18.1;16.2;;;;;;;-2.73;75.80664;98852.91;;;;
2021/01/16 11:00:19;;;;;;;23.8;15.8;;;;;;;-2.49;76.80176;98842.55;;;;
2021/01/16 11:10:17;;;;;;;19.8;16.6;;;;;;;-2.71;77.08008;98837.66;;;;
2021/01/16 11:20:14;;;;;;;22.5;16.1;;;;;;;-2.8;77.71973;98825.78;;;;
2021/01/16 11:30:12;;;;;;;25.6;16;;;;;;;-2.82;78.01172;98825.2;;;;
2021/01/16 11:40:09;;;;;;;29.8;20.9;;;;;;;-2.73;79.04297;98813.34;;;;
2021/01/16 11:50:07;;;;;;;24;18.2;;;;;;;-2.74;77.66406;98797.75;;;;
2021/01/16 12:00:04;;;;;;;23.7;14.8;;;;;;;-2.82;77.21191;98795.38;;;;
2021/01/16 12:10:01;;;;;;;25;17.5;;;;;;;-2.81;76.10938;98791.73;;;;
2021/01/16 12:19:59;;;;;;;15.1;10.5;;;;;;;-2.91;76.01465;98775.56;;;;
2021/01/16 12:29:56;;;;;;;18.2;13.3;;;;;;;-2.74;76.14355;98768.73;;;;
2021/01/16 12:39:54;;;;;;;18.2;13.1;;;;;;;-3.01;76.70605;98759.42;;;;
2021/01/16 12:49:51;;;;;;;25.6;16;;;;;;;-2.97;76.11426;98758.78;;;;
2021/01/16 12:59:49;;;;;;;23.3;17.6;;;;;;;-3.2;77;98750.68;;;;
2021/01/16 13:09:46;;;;;;;20;14.5;;;;;;;-3.46;78.6875;98742.95;;;;
2021/01/16 13:19:43;;;;;;;18.2;12;;;;;;;-3.8;80.06543;98758.17;;;;
2021/01/16 14:09:30;;;;;;;32;21.2;;;;;;;-4.87;82.01367;98721.15;;;;
2021/01/16 14:19:27;;;;;;;37.7;22.3;;;;;;;-4.88;80.0332;98723.97;;;;
2021/01/16 14:29:24;;;;;;;26.8;17.3;;;;;;;-4.88;79.34766;98726.59;;;;
2021/01/16 14:39:21;;;;;;;16.1;9.8;;;;;;;-5.19;79.5752;98730.69;;;;
2021/01/16 14:49:24;;;;;;;18.8;13.2;;;;;;;-5.28;80.06738;98729.29;;;;
2021/01/16 14:59:16;;;;;;;27.2;12;;;;;;;-5.41;81.19141;98731.08;;;;
2021/01/16 15:09:21;;;;;;;27.8;17.8;;;;;;;-5.35;82.21289;98723.23;;;;
2021/01/16 15:19:10;;;;;;;26.4;16.8;;;;;;;-5.54;82.01367;98731.89;;;;
2021/01/16 15:29:07;;;;;;;17.9;12.8;;;;;;;-5.71;81.23242;98722.79;;;;
2021/01/16 15:39:04;;;;;;;27.1;16.1;;;;;;;-5.96;81.50977;98730.44;;;;
2021/01/16 15:49:01;;;;;;;17.7;15.3;;;;;;;-5.94;82.79199;98727.63;;;;
2021/01/16 15:58:58;;;;;;;26.1;16.9;;;;;;;-5.81;83.09961;98738.12;;;;
2021/01/16 16:08:55;;;;;;;28.3;19.5;;;;;;;-5.81;82.70898;98711.88;;;;
2021/01/16 16:18:52;;;;;;;23.4;14.7;;;;;;;-5.87;82.53418;98708.27;;;;
2021/01/16 16:28:49;;;;;;;27.4;14.9;;;;;;;-6.04;82.05762;98704.41;;;;
2021/01/16 16:38:46;;;;;;;27.3;17.7;;;;;;;-6.12;82.00879;98694.91;;;;
2021/01/16 16:48:43;;;;;;;20.2;13.3;;;;;;;-6.09;82.01465;98671.89;;;;
2021/01/16 16:58:41;;;;;;;23;15.1;;;;;;;-6.13;81.28223;98668.86;;;;
2021/01/16 17:08:39;;;;;;;18;10.2;;;;;;;-6.06;81.23926;98658.38;;;;
2021/01/16 17:18:35;;;;;;;20.7;12.1;;;;;;;-5.99;80.7334;98651.33;;;;
2021/01/16 17:28:32;;;;;;;20.8;13.2;;;;;;;-5.97;81.2998;98638.84;;;;
2021/01/16 17:38:29;;;;;;;27;16.7;;;;;;;-5.99;81.58008;98610.16;;;;
2021/01/16 17:48:26;;;;;;;19.1;12.3;;;;;;;-5.99;82.77148;98594.42;;;;
2021/01/16 17:58:23;;;;;;;13;11.6;;;;;;;-5.89;83.6582;98584.33;;;;
2021/01/16 18:08:20;;;;;;;13.1;8.7;;;;;;;-5.91;84.13086;98575.86;;;;
2021/01/16 18:18:18;;;;;;;14.3;10;;;;;;;-5.97;85.82715;98557.5;;;;
2021/01/16 18:28:16;;;;;;;14.4;7.5;;;;;;;-5.99;85.53125;98546.39;;;;
2021/01/16 18:38:12;;;;;;;14.2;9.9;;;;;;;-5.98;85.17773;98533.08;;;;
2021/01/16 18:48:08;;;;;;;17;10.5;;;;;;;-5.98;85.46777;98521.78;;;;
2021/01/16 18:58:05;;;;;;;23.4;11.3;;;;;;;-5.94;85.19531;98525.62;;;;
2021/01/16 19:08:02;;;;;;;14.7;9.2;;;;;;;-5.82;84.21191;98516.06;;;;
2021/01/16 19:17:59;;;;;;;14.8;10.4;;;;;;;-5.81;83.57617;98492.26;;;;
2021/01/16 19:27:57;;;;;;;21.8;13.9;;;;;;;-5.76;84.36719;98495.05;;;;
2021/01/16 19:37:54;;;;;;;21.3;11.3;;;;;;;-5.78;84.12305;98483.97;;;;
2021/01/16 19:47:51;;;;;;;16.9;10.2;;;;;;;-5.65;83.00098;98467.38;;;;
2021/01/16 19:57:48;;;;;;;20.3;11.6;;;;;;;-5.64;82.91406;98461.11;;;;
2021/01/16 20:07:45;;;;;;;17.4;9.5;;;;;;;-5.59;83.53418;98462.09;;;;
2021/01/16 20:17:42;;;;;;;15.5;11.9;;;;;;;-5.62;83.42969;98452.02;;;;
2021/01/16 20:27:39;;;;;;;14.7;10.4;;;;;;;-5.6;83.89844;98441.32;;;;
2021/01/16 20:37:36;;;;;;;14.5;9.3;;;;;;;-5.63;83.6875;98439.11;;;;
2021/01/16 20:47:33;;;;;;;24.7;14.9;;;;;;;-5.67;85.2168;98414.29;;;;
2021/01/16 20:57:30;;;;;;;18.9;9.2;;;;;;;-5.66;85.5332;98408.03;;;;
2021/01/16 21:07:28;;;;;;;13.1;9.1;;;;;;;-5.53;85.19043;98401.91;;;;
2021/01/16 21:17:25;;;;;;;19.8;11.7;;;;;;;-5.57;85.08594;98392.84;;;;
2021/01/16 21:27:22;;;;;;;19.9;11.7;;;;;;;-5.54;85.38477;98384.55;;;;
2021/01/16 21:37:19;;;;;;;16.7;13;;;;;;;-5.61;85.84766;98387.2;;;;
2021/01/16 21:47:16;;;;;;;23;15.2;;;;;;;-5.61;85.52246;98384.58;;;;
2021/01/16 21:57:13;;;;;;;20.5;13.5;;;;;;;-5.54;85.27734;98387.98;;;;
2021/01/16 22:07:11;;;;;;;25.8;17.3;;;;;;;-5.5;85.67578;98386.55;;;;
2021/01/16 22:17:07;;;;;;;20.7;14.8;;;;;;;-5.52;85.62891;98391.22;;;;
2021/01/16 22:27:04;;;;;;;43.7;22.6;;;;;;;-5.45;84.66406;98372.8;;;;
2021/01/16 22:37:04;;;;;;;18.9;12.3;;;;;;;-5.47;84.25977;98364.31;;;;
2021/01/16 22:46:58;;;;;;;19.2;13.7;;;;;;;-5.36;84.1416;98347.89;;;;
2021/01/16 22:56:55;;;;;;;31.7;19.4;;;;;;;-5.34;85.21875;98337.97;;;;
2021/01/16 23:06:53;;;;;;;16.7;11.7;;;;;;;-5.35;84.80566;98333.75;;;;
2021/01/16 23:16:50;;;;;;;24.3;13.3;;;;;;;-5.38;85.0166;98334.96;;;;
2021/01/16 23:26:47;;;;;;;21.5;15.5;;;;;;;-5.25;85.17188;98323.58;;;;
2021/01/16 23:36:44;;;;;;;23;15.6;;;;;;;-5.28;84.79785;98305.63;;;;
2021/01/16 23:46:41;;;;;;;21.1;15.4;;;;;;;-5.27;83.99707;98291.45;;;;
2021/01/16 23:56:38;;;;;;;16.2;12;;;;;;;-5.23;83.21387;98282.14;;;;
